New Dayton, Canada
Current Conditions -  °F | °C
As of 9:41 PM on Saturday 22 Nov 2014 (Local Time) from CYQL Reporting Station
Light Snow Light Snow  
Wind Chill: 32°   Ceiling: 4000
Heat Index: 32°   Visibility: 15mi
Dew Point: 30°   Wind: 3mph
Humidity: 93%   Direction: 230°SW
Pressure: 29.58"   Gusts: NA
Location:  49.42°N, 112.38°W
Report Text: CYQL 230441Z 23003KT 060V240 15SM -SN FEW025 BKN040 OVC070 00/M01 A2958 RMK SC2SC4AC2 SLP044
Loading
Personal Weather Stations






























Interactive Weather Map New forecast layout! Learn more

10-Day Weather Forecast

Advertisements
Track Severe Weather on mobile